PJEXD TNCC-TNCC
Flight info
| Callsign | PJEXD |
|---|---|
| Flight time | 0h 34m |
| Altitude | 1700 |
| Route | VFR AROUND THE ISLAND LEVEL FLIGHT AND TURNS AND CIRCUITS |
| Aircraft | C172/L-G/C |
Departure
| Time | 2026-05-06 22:10 |
|---|---|
| Airport | Hato International Airport (TNCC) |
Arrival
| Time | 2026-05-06 22:45 |
|---|---|
| Airport | Hato International Airport (TNCC) |
| Time | Latitude | Longitude | Altitude | Speed | Heading |
|---|---|---|---|---|---|
| 2026-05-06 21:53 | 12.18453 | -68.95381 | 38 ft | 0 kts | 104° |
| 2026-05-06 21:58 | 12.18453 | -68.95376 | 38 ft | 3 kts | 78° |
| 2026-05-06 21:59 | 12.18458 | -68.95368 | 38 ft | 0 kts | 54° |
| 2026-05-06 22:01 | 12.18458 | -68.95367 | 38 ft | 2 kts | 47° |
| 2026-05-06 22:01 | 12.18483 | -68.95371 | 38 ft | 5 kts | 314° |
| 2026-05-06 22:01 | 12.18510 | -68.95405 | 38 ft | 9 kts | 298° |
| 2026-05-06 22:02 | 12.18572 | -68.95450 | 38 ft | 13 kts | 349° |
| 2026-05-06 22:02 | 12.18614 | -68.95513 | 38 ft | 12 kts | 283° |
| 2026-05-06 22:02 | 12.18632 | -68.95612 | 37 ft | 17 kts | 287° |
| 2026-05-06 22:02 | 12.18662 | -68.95741 | 37 ft | 21 kts | 281° |
| 2026-05-06 22:03 | 12.18694 | -68.95897 | 38 ft | 17 kts | 280° |
| 2026-05-06 22:03 | 12.18762 | -68.95937 | 38 ft | 1 kts | 47° |
| 2026-05-06 22:09 | 12.18786 | -68.95932 | 38 ft | 8 kts | 7° |
| 2026-05-06 22:09 | 12.18863 | -68.95905 | 37 ft | 16 kts | 75° |
| 2026-05-06 22:09 | 12.18856 | -68.95800 | 37 ft | 25 kts | 102° |
| 2026-05-06 22:09 | 12.18789 | -68.95479 | 59 ft | 61 kts | 100° |
| 2026-05-06 22:10 | 12.18719 | -68.95015 | 205 ft | 67 kts | 93° |
| 2026-05-06 22:10 | 12.18682 | -68.94540 | 375 ft | 73 kts | 87° |
| 2026-05-06 22:10 | 12.18694 | -68.94045 | 633 ft | 69 kts | 88° |
| 2026-05-06 22:10 | 12.18689 | -68.93563 | 797 ft | 67 kts | 91° |
| 2026-05-06 22:11 | 12.18650 | -68.93108 | 938 ft | 68 kts | 106° |
| 2026-05-06 22:11 | 12.18255 | -68.92771 | 1009 ft | 81 kts | 146° |
| 2026-05-06 22:11 | 12.17740 | -68.92565 | 1142 ft | 78 kts | 144° |
| 2026-05-06 22:11 | 12.17238 | -68.92348 | 1189 ft | 81 kts | 146° |
| 2026-05-06 22:12 | 12.16733 | -68.92118 | 1204 ft | 77 kts | 140° |
| 2026-05-06 22:12 | 12.16266 | -68.91846 | 1253 ft | 83 kts | 138° |
| 2026-05-06 22:12 | 12.15819 | -68.91548 | 1445 ft | 72 kts | 131° |
| 2026-05-06 22:12 | 12.15403 | -68.91260 | 1525 ft | 75 kts | 130° |
| 2026-05-06 22:13 | 12.14956 | -68.90958 | 1599 ft | 76 kts | 129° |
| 2026-05-06 22:13 | 12.14550 | -68.90639 | 1660 ft | 76 kts | 127° |
| 2026-05-06 22:13 | 12.14228 | -68.90273 | 1766 ft | 69 kts | 119° |
| 2026-05-06 22:13 | 12.13779 | -68.89934 | 1680 ft | 85 kts | 129° |
| 2026-05-06 22:14 | 12.13304 | -68.89578 | 1674 ft | 87 kts | 129° |
| 2026-05-06 22:14 | 12.12815 | -68.89202 | 1667 ft | 88 kts | 129° |
| 2026-05-06 22:14 | 12.12324 | -68.88827 | 1672 ft | 88 kts | 130° |
| 2026-05-06 22:14 | 12.11835 | -68.88460 | 1674 ft | 87 kts | 129° |
| 2026-05-06 22:15 | 12.11347 | -68.88092 | 1670 ft | 87 kts | 129° |
| 2026-05-06 22:15 | 12.10862 | -68.87725 | 1674 ft | 88 kts | 129° |
| 2026-05-06 22:15 | 12.10367 | -68.87354 | 1673 ft | 87 kts | 130° |
| 2026-05-06 22:15 | 12.09872 | -68.86983 | 1668 ft | 89 kts | 129° |
| 2026-05-06 22:16 | 12.09360 | -68.86590 | 1673 ft | 95 kts | 130° |
| 2026-05-06 22:16 | 12.08832 | -68.86155 | 1677 ft | 100 kts | 129° |
| 2026-05-06 22:16 | 12.08290 | -68.85692 | 1676 ft | 103 kts | 129° |
| 2026-05-06 22:16 | 12.07809 | -68.85163 | 1672 ft | 101 kts | 121° |
| 2026-05-06 22:17 | 12.07356 | -68.84617 | 1670 ft | 101 kts | 122° |
| 2026-05-06 22:17 | 12.06900 | -68.84064 | 1668 ft | 104 kts | 121° |
| 2026-05-06 22:17 | 12.06429 | -68.83509 | 1663 ft | 103 kts | 122° |
| 2026-05-06 22:17 | 12.05967 | -68.82952 | 1664 ft | 103 kts | 122° |
| 2026-05-06 22:18 | 12.05501 | -68.82389 | 1668 ft | 103 kts | 122° |
| 2026-05-06 22:18 | 12.05039 | -68.81831 | 1668 ft | 103 kts | 122° |
| 2026-05-06 22:18 | 12.04583 | -68.81277 | 1669 ft | 104 kts | 122° |
| 2026-05-06 22:18 | 12.04118 | -68.80711 | 1668 ft | 104 kts | 122° |
| 2026-05-06 22:19 | 12.03654 | -68.80147 | 1666 ft | 104 kts | 122° |
| 2026-05-06 22:19 | 12.03192 | -68.79584 | 1669 ft | 103 kts | 122° |
| 2026-05-06 22:19 | 12.02734 | -68.79026 | 1668 ft | 102 kts | 122° |
| 2026-05-06 22:19 | 12.02277 | -68.78470 | 1663 ft | 102 kts | 122° |
| 2026-05-06 22:20 | 12.01822 | -68.77917 | 1671 ft | 102 kts | 122° |
| 2026-05-06 22:20 | 12.01367 | -68.77365 | 1663 ft | 101 kts | 122° |
| 2026-05-06 22:20 | 12.00912 | -68.76814 | 1663 ft | 101 kts | 122° |
| 2026-05-06 22:20 | 12.00458 | -68.76264 | 1660 ft | 101 kts | 122° |
| 2026-05-06 22:21 | 12.00024 | -68.75707 | 1666 ft | 97 kts | 110° |
| 2026-05-06 22:21 | 12.00164 | -68.75099 | 1627 ft | 105 kts | 46° |
| 2026-05-06 22:21 | 12.00957 | -68.75134 | 1545 ft | 139 kts | 341° |
| 2026-05-06 22:21 | 12.01505 | -68.76016 | 1466 ft | 157 kts | 281° |
| 2026-05-06 22:22 | 12.01222 | -68.77042 | 1419 ft | 148 kts | 220° |
| 2026-05-06 22:22 | 12.00403 | -68.77398 | 1448 ft | 120 kts | 160° |
| 2026-05-06 22:22 | 11.99935 | -68.76891 | 1269 ft | 103 kts | 83° |
| 2026-05-06 22:22 | 12.00495 | -68.76516 | 1328 ft | 117 kts | 4° |
| 2026-05-06 22:23 | 12.01227 | -68.77010 | 1349 ft | 129 kts | 331° |
| 2026-05-06 22:23 | 12.01941 | -68.77579 | 1371 ft | 135 kts | 326° |
| 2026-05-06 22:23 | 12.02584 | -68.78274 | 1396 ft | 136 kts | 325° |
| 2026-05-06 22:23 | 12.03111 | -68.79108 | 1381 ft | 150 kts | 288° |
| 2026-05-06 22:24 | 12.03037 | -68.80127 | 1474 ft | 143 kts | 240° |
| 2026-05-06 22:24 | 12.02565 | -68.81009 | 1476 ft | 143 kts | 245° |
| 2026-05-06 22:24 | 12.02513 | -68.81991 | 1568 ft | 137 kts | 290° |
| 2026-05-06 22:24 | 12.03085 | -68.82679 | 1569 ft | 122 kts | 351° |
| 2026-05-06 22:25 | 12.03817 | -68.82633 | 1613 ft | 99 kts | 39° |
| 2026-05-06 22:25 | 12.04219 | -68.82145 | 1628 ft | 87 kts | 72° |
| 2026-05-06 22:25 | 12.04125 | -68.81538 | 1598 ft | 99 kts | 122° |
| 2026-05-06 22:25 | 12.03405 | -68.81328 | 1595 ft | 124 kts | 179° |
| 2026-05-06 22:26 | 12.02716 | -68.81899 | 1688 ft | 137 kts | 234° |
| 2026-05-06 22:26 | 12.02594 | -68.82886 | 1690 ft | 141 kts | 281° |
| 2026-05-06 22:26 | 12.02931 | -68.83778 | 1734 ft | 136 kts | 303° |
| 2026-05-06 22:26 | 12.03405 | -68.84629 | 1725 ft | 139 kts | 310° |
| 2026-05-06 22:27 | 12.03932 | -68.85456 | 1727 ft | 138 kts | 315° |
| 2026-05-06 22:27 | 12.04484 | -68.86263 | 1748 ft | 140 kts | 303° |
| 2026-05-06 22:27 | 12.04554 | -68.87257 | 1687 ft | 148 kts | 241° |
| 2026-05-06 22:27 | 12.04169 | -68.88154 | 1899 ft | 128 kts | 257° |
| 2026-05-06 22:28 | 12.04368 | -68.89021 | 1897 ft | 128 kts | 322° |
| 2026-05-06 22:28 | 12.05086 | -68.89343 | 1968 ft | 105 kts | 8° |
| 2026-05-06 22:28 | 12.05696 | -68.89126 | 1938 ft | 90 kts | 62° |
| 2026-05-06 22:28 | 12.05980 | -68.88588 | 1984 ft | 88 kts | 61° |
| 2026-05-06 22:29 | 12.06315 | -68.88040 | 1938 ft | 92 kts | 72° |
| 2026-05-06 22:29 | 12.02722 | -68.79220 | 1924 ft | 3717 kts | 114° |
| 2026-05-06 22:29 | 11.98509 | -68.69520 | 1923 ft | 91 kts | 107° |
| 2026-05-06 22:29 | 11.98312 | -68.68895 | 1846 ft | 95 kts | 104° |
| 2026-05-06 22:30 | 11.98116 | -68.68205 | 1686 ft | 103 kts | 104° |
| 2026-05-06 22:30 | 11.97898 | -68.67473 | 1473 ft | 111 kts | 102° |
| 2026-05-06 22:30 | 11.97774 | -68.66715 | 1435 ft | 106 kts | 92° |
| 2026-05-06 22:30 | 11.97819 | -68.65962 | 1337 ft | 106 kts | 85° |
| 2026-05-06 22:31 | 11.97945 | -68.65237 | 1206 ft | 106 kts | 82° |
| 2026-05-06 22:31 | 11.98112 | -68.64493 | 1090 ft | 107 kts | 78° |
| 2026-05-06 22:31 | 11.98349 | -68.63815 | 952 ft | 102 kts | 61° |
| 2026-05-06 22:31 | 11.98957 | -68.63409 | 806 ft | 111 kts | 17° |
| 2026-05-06 22:32 | 11.99669 | -68.63575 | 876 ft | 111 kts | 345° |
| 2026-05-06 22:32 | 12.00273 | -68.64095 | 907 ft | 120 kts | 306° |
| 2026-05-06 22:32 | 12.00578 | -68.64909 | 912 ft | 126 kts | 288° |
| 2026-05-06 22:32 | 12.00771 | -68.65801 | 917 ft | 123 kts | 298° |
| 2026-05-06 22:33 | 12.00929 | -68.66637 | 1014 ft | 118 kts | 280° |
| 2026-05-06 22:33 | 12.01021 | -68.67468 | 1101 ft | 118 kts | 281° |
| 2026-05-06 22:33 | 12.01120 | -68.68303 | 1205 ft | 119 kts | 281° |
| 2026-05-06 22:33 | 12.02160 | -68.74474 | 1264 ft | 2702 kts | 280° |
| 2026-05-06 22:34 | 12.03015 | -68.79495 | 1331 ft | 120 kts | 279° |
| 2026-05-06 22:34 | 12.03179 | -68.80330 | 1421 ft | 119 kts | 297° |
| 2026-05-06 22:34 | 12.03456 | -68.81145 | 1506 ft | 119 kts | 294° |
| 2026-05-06 22:34 | 12.03713 | -68.81980 | 1465 ft | 131 kts | 296° |
| 2026-05-06 22:35 | 12.06395 | -68.86308 | 1451 ft | 132 kts | 308° |
| 2026-05-06 22:35 | 12.06823 | -68.87130 | 1440 ft | 133 kts | 304° |
| 2026-05-06 22:35 | 12.07231 | -68.87993 | 1392 ft | 135 kts | 303° |
| 2026-05-06 22:35 | 12.08966 | -68.91208 | 1378 ft | 133 kts | 300° |
| 2026-05-06 22:36 | 12.09329 | -68.92079 | 1369 ft | 133 kts | 300° |
| 2026-05-06 22:36 | 12.09698 | -68.92947 | 1376 ft | 133 kts | 301° |
| 2026-05-06 22:36 | 12.10075 | -68.93810 | 1385 ft | 132 kts | 302° |
| 2026-05-06 22:36 | 12.10455 | -68.94665 | 1377 ft | 132 kts | 302° |
| 2026-05-06 22:37 | 12.10844 | -68.95517 | 1346 ft | 133 kts | 303° |
| 2026-05-06 22:37 | 12.11240 | -68.96384 | 1307 ft | 135 kts | 303° |
| 2026-05-06 22:37 | 12.13359 | -68.99356 | 1292 ft | 134 kts | 313° |
| 2026-05-06 22:37 | 12.13946 | -69.00063 | 1274 ft | 130 kts | 322° |
| 2026-05-06 22:38 | 12.14525 | -69.00774 | 1247 ft | 131 kts | 317° |
| 2026-05-06 22:38 | 12.15073 | -69.01508 | 1246 ft | 128 kts | 320° |
| 2026-05-06 22:38 | 12.15616 | -69.02237 | 1233 ft | 129 kts | 318° |
| 2026-05-06 22:38 | 12.16158 | -69.02972 | 1204 ft | 129 kts | 317° |
| 2026-05-06 22:39 | 12.16702 | -69.03691 | 1215 ft | 126 kts | 320° |
| 2026-05-06 22:39 | 12.17346 | -69.04256 | 1200 ft | 118 kts | 341° |
| 2026-05-06 22:39 | 12.18050 | -69.04364 | 1179 ft | 94 kts | 34° |
| 2026-05-06 22:39 | 12.18649 | -69.04100 | 1141 ft | 94 kts | 34° |
| 2026-05-06 22:40 | 12.19261 | -69.03846 | 1065 ft | 96 kts | 34° |
| 2026-05-06 22:40 | 12.19893 | -69.03584 | 981 ft | 98 kts | 34° |
| 2026-05-06 22:40 | 12.19499 | -69.03995 | 926 ft | 95 kts | 44° |
| 2026-05-06 22:40 | 12.20125 | -69.03713 | 893 ft | 100 kts | 36° |
| 2026-05-06 22:41 | 12.20663 | -69.02872 | 973 ft | 79 kts | 113° |
| 2026-05-06 22:41 | 12.20379 | -69.02438 | 1114 ft | 70 kts | 112° |
| 2026-05-06 22:41 | 12.20159 | -69.02005 | 1183 ft | 70 kts | 100° |
| 2026-05-06 22:42 | 12.20006 | -69.01502 | 1173 ft | 78 kts | 99° |
| 2026-05-06 22:42 | 12.19868 | -69.00955 | 1156 ft | 86 kts | 99° |
| 2026-05-06 22:42 | 12.19723 | -69.00354 | 1199 ft | 87 kts | 98° |
| 2026-05-06 22:42 | 12.19606 | -68.99719 | 954 ft | 93 kts | 99° |
| 2026-05-06 22:43 | 12.19446 | -68.99144 | 769 ft | 79 kts | 101° |
| 2026-05-06 22:43 | 12.19336 | -68.98643 | 596 ft | 72 kts | 95° |
| 2026-05-06 22:43 | 12.19306 | -68.98310 | 439 ft | 69 kts | 90° |
| 2026-05-06 22:43 | 12.19228 | -68.97855 | 315 ft | 60 kts | 98° |
| 2026-05-06 22:44 | 12.19170 | -68.97469 | 253 ft | 52 kts | 93° |
| 2026-05-06 22:44 | 12.19100 | -68.97090 | 205 ft | 56 kts | 97° |
| 2026-05-06 22:44 | 12.19030 | -68.96681 | 161 ft | 60 kts | 97° |
| 2026-05-06 22:44 | 12.18940 | -68.96271 | 105 ft | 56 kts | 96° |
| 2026-05-06 22:45 | 12.18866 | -68.95910 | 54 ft | 46 kts | 98° |
| 2026-05-06 22:45 | 12.18813 | -68.95656 | 35 ft | 30 kts | 88° |
| 2026-05-06 22:45 | 12.18777 | -68.95440 | 36 ft | 30 kts | 98° |
| 2026-05-06 22:45 | 12.18759 | -68.95351 | 37 ft | 1 kts | 155° |
| 2026-05-06 22:46 | 12.18754 | -68.95349 | 37 ft | 5 kts | 166° |
| 2026-05-06 22:46 | 12.18747 | -68.95351 | 37 ft | 4 kts | 250° |
| 2026-05-06 22:46 | 12.18700 | -68.95397 | 37 ft | 12 kts | 192° |
| 2026-05-06 22:46 | 12.18651 | -68.95407 | 37 ft | 4 kts | 181° |
| 2026-05-06 22:47 | 12.18645 | -68.95407 | 37 ft | 0 kts | 170° |
| 2026-05-06 22:47 | 12.18628 | -68.95423 | 37 ft | 13 kts | 224° |
| 2026-05-06 22:47 | 12.18549 | -68.95441 | 38 ft | 11 kts | 147° |
| 2026-05-06 22:48 | 12.18513 | -68.95395 | 38 ft | 6 kts | 116° |
| 2026-05-06 22:48 | 12.18480 | -68.95339 | 38 ft | 11 kts | 122° |
| 2026-05-06 22:48 | 12.18445 | -68.95289 | 38 ft | 7 kts | 101° |
| 2026-05-06 22:48 | 12.18441 | -68.95274 | 38 ft | 1 kts | 129° |
| 2026-05-06 22:49 | 12.18441 | -68.95273 | 38 ft | 0 kts | 200° |